createdAt,value
2023-04-20T00:00:45.161Z,52.45
2023-04-20T00:01:45.192Z,52.45
2023-04-20T00:02:45.274Z,51.93
2023-04-20T00:03:45.334Z,52.14
2023-04-20T00:04:45.166Z,52.76
2023-04-20T00:05:45.073Z,52.86
2023-04-20T00:06:45.098Z,53.06
2023-04-20T00:07:45.091Z,51.95
2023-04-20T00:08:45.058Z,52.98
2023-04-20T00:09:45.067Z,52.26
2023-04-20T00:10:45.112Z,52.88
2023-04-20T00:11:45.094Z,52.37
2023-04-20T00:12:45.024Z,52.47
2023-04-20T00:13:45.023Z,51.85
2023-04-20T00:14:45.025Z,52.45
2023-04-20T00:15:44.968Z,52.45
2023-04-20T00:16:45.054Z,53.71
2023-04-20T00:17:45.045Z,54.02
2023-04-20T00:18:44.997Z,53.30
2023-04-20T00:19:44.964Z,54.43
2023-04-20T00:20:44.930Z,54.41
2023-04-20T00:21:44.918Z,54.71
2023-04-20T00:22:44.929Z,54.20
2023-04-20T00:23:44.960Z,55.02
2023-04-20T00:24:44.987Z,53.58
2023-04-20T00:25:44.926Z,54.30
2023-04-20T00:26:44.945Z,53.06
2023-04-20T00:27:44.903Z,53.68
2023-04-20T00:28:44.935Z,53.97
2023-04-20T00:29:45.080Z,53.97
2023-04-20T00:30:44.939Z,53.45
2023-04-20T00:31:44.979Z,53.66
2023-04-20T00:32:45.054Z,53.66
2023-04-20T00:33:44.849Z,53.76
2023-04-20T00:34:44.868Z,54.07
2023-04-20T00:35:44.807Z,53.35
2023-04-20T00:36:44.767Z,52.91
2023-04-20T00:37:44.779Z,53.74
2023-04-20T00:38:44.755Z,54.46
2023-04-20T00:39:44.728Z,53.53
2023-04-20T00:40:44.750Z,53.33
2023-04-20T00:41:44.732Z,53.53
2023-04-20T00:42:45.694Z,54.56
2023-04-20T00:43:44.740Z,54.56
2023-04-20T00:44:44.690Z,54.48
2023-04-20T00:45:44.690Z,54.28
2023-04-20T00:46:44.722Z,54.28
2023-04-20T00:47:44.746Z,54.79
2023-04-20T00:48:44.681Z,53.86
2023-04-20T00:49:44.684Z,54.48
2023-04-20T00:50:44.656Z,54.38
2023-04-20T00:51:44.643Z,54.58
2023-04-20T00:52:44.603Z,55.62
2023-04-20T00:53:44.586Z,55.10
2023-04-20T00:54:44.650Z,54.90
2023-04-20T00:55:44.611Z,55.10
2023-04-20T00:56:44.580Z,55.00
2023-04-20T00:57:44.593Z,55.93
2023-04-20T00:58:44.559Z,55.51
2023-04-20T00:59:44.537Z,57.09
2023-04-20T01:00:44.511Z,56.05
2023-04-20T01:01:44.520Z,57.09
2023-04-20T01:02:44.624Z,56.57
2023-04-20T01:03:44.601Z,56.77
2023-04-20T01:04:44.483Z,57.21
2023-04-20T01:05:44.469Z,56.80
2023-04-20T01:06:44.506Z,56.49
2023-04-20T01:07:44.450Z,57.01
2023-04-20T01:08:44.461Z,56.90
2023-04-20T01:09:44.432Z,56.59
2023-04-20T01:10:44.418Z,56.49
2023-04-20T01:11:44.414Z,57.73
2023-04-20T01:12:44.448Z,56.80
2023-04-20T01:13:44.427Z,56.49
2023-04-20T01:14:44.417Z,56.59
2023-04-20T01:15:44.412Z,56.08
2023-04-20T01:16:44.358Z,56.39
2023-04-20T01:17:44.410Z,57.83
2023-04-20T01:18:44.374Z,57.11
2023-04-20T01:19:44.348Z,57.01
2023-04-20T01:20:44.347Z,57.52
2023-04-20T01:21:44.296Z,57.73
2023-04-20T01:22:44.317Z,57.01
2023-04-20T01:23:44.334Z,55.98
2023-04-20T01:24:44.298Z,56.49
2023-04-20T01:25:44.331Z,56.49
2023-04-20T01:26:44.288Z,57.21
2023-04-20T01:27:44.255Z,57.01
2023-04-20T01:28:44.236Z,57.62
2023-04-20T01:29:44.216Z,58.25
2023-04-20T01:30:44.280Z,57.83
2023-04-20T01:31:44.268Z,57.32
2023-04-20T01:32:44.251Z,57.32
2023-04-20T01:33:44.192Z,58.45
2023-04-20T01:34:44.177Z,58.04
2023-04-20T01:35:44.204Z,58.14
2023-04-20T01:36:44.205Z,58.14
2023-04-20T01:37:44.133Z,59.07
2023-04-20T01:38:44.158Z,58.55
2023-04-20T01:39:44.183Z,59.07
2023-04-20T01:40:44.126Z,58.45
2023-04-20T01:41:44.129Z,58.14
2023-04-20T01:42:44.102Z,58.25
2023-04-20T01:43:44.175Z,58.65
2023-04-20T01:44:44.085Z,58.25
2023-04-20T01:45:44.064Z,58.97
2023-04-20T01:46:44.134Z,58.76
2023-04-20T01:47:44.092Z,58.55
2023-04-20T01:48:44.082Z,58.25
2023-04-20T01:49:44.022Z,59.14
2023-04-20T01:50:44.038Z,59.56
2023-04-20T01:51:44.024Z,60.41
2023-04-20T01:52:44.007Z,58.97
2023-04-20T01:53:44.011Z,59.35
2023-04-20T01:54:43.993Z,59.86
2023-04-20T01:55:43.968Z,59.38
2023-04-20T01:56:43.972Z,60.31
2023-04-20T01:57:43.938Z,59.58
2023-04-20T01:58:43.929Z,60.69
2023-04-20T01:59:43.927Z,60.72
2023-04-20T02:00:43.970Z,61.10
2023-04-20T02:01:43.920Z,60.59
2023-04-20T02:02:44.171Z,60.79
2023-04-20T02:03:43.967Z,61.72
2023-04-20T02:04:43.901Z,61.82
2023-04-20T02:05:43.846Z,61.75
2023-04-20T02:06:43.896Z,61.10
2023-04-20T02:07:43.898Z,62.16
2023-04-20T02:08:43.834Z,61.33
2023-04-20T02:09:43.821Z,61.96
2023-04-20T02:10:43.814Z,62.16
2023-04-20T02:11:43.850Z,62.16
2023-04-20T02:12:43.806Z,62.06
2023-04-20T02:13:43.770Z,63.40
2023-04-20T02:14:43.783Z,62.47
2023-04-20T02:15:43.777Z,62.37
2023-04-20T02:16:43.817Z,62.26
2023-04-20T02:17:43.786Z,62.88
2023-04-20T02:18:43.762Z,63.81
2023-04-20T02:19:43.728Z,63.29
2023-04-20T02:20:43.705Z,64.64
2023-04-20T02:21:43.758Z,64.74
2023-04-20T02:22:43.699Z,64.95
2023-04-20T02:23:43.740Z,65.36
2023-04-20T02:24:43.711Z,65.77
2023-04-20T02:25:43.633Z,65.84
2023-04-20T02:26:43.651Z,64.71
2023-04-20T02:27:43.642Z,65.22
2023-04-20T02:28:43.624Z,65.74
2023-04-20T02:29:43.667Z,65.22
2023-04-20T02:30:43.627Z,65.74
2023-04-20T02:31:43.674Z,66.22
2023-04-20T02:32:43.720Z,67.05
2023-04-20T02:33:43.570Z,66.94
2023-04-20T02:34:43.584Z,66.94
2023-04-20T02:35:43.554Z,67.87
2023-04-20T02:36:43.589Z,67.15
2023-04-20T02:37:43.557Z,67.97
2023-04-20T02:38:43.552Z,68.08
2023-04-20T02:39:43.538Z,67.97
2023-04-20T02:40:43.619Z,68.18
2023-04-20T02:41:43.481Z,67.87
2023-04-20T02:42:43.493Z,68.18
2023-04-20T02:43:43.497Z,68.18
2023-04-20T02:44:43.526Z,68.39
2023-04-20T02:45:43.468Z,68.49
2023-04-20T02:46:43.531Z,68.08
2023-04-20T02:47:43.526Z,67.97
2023-04-20T02:48:43.441Z,68.90
2023-04-20T02:49:43.426Z,68.80
2023-04-20T02:50:43.415Z,67.87
2023-04-20T02:51:43.389Z,68.08
2023-04-20T02:52:43.406Z,67.87
2023-04-20T02:53:43.384Z,68.18
2023-04-20T02:54:43.366Z,68.49
2023-04-20T02:55:43.328Z,68.90
2023-04-20T02:56:43.333Z,67.87
2023-04-20T02:57:43.365Z,67.87
2023-04-20T02:58:43.351Z,68.29
2023-04-20T02:59:43.303Z,67.22
2023-04-20T03:00:43.297Z,66.81
2023-04-20T03:01:43.305Z,66.50
2023-04-20T03:02:43.403Z,67.33
2023-04-20T03:03:43.462Z,67.02
2023-04-20T03:04:43.339Z,67.22
2023-04-20T03:05:43.319Z,67.53
2023-04-20T03:06:43.265Z,68.56
2023-04-20T03:07:43.219Z,68.35
2023-04-20T03:08:43.245Z,68.90
2023-04-20T03:09:43.193Z,68.70
2023-04-20T03:10:43.251Z,67.77
2023-04-20T03:11:43.178Z,66.64
2023-04-20T03:12:43.192Z,66.84
2023-04-20T03:13:43.162Z,67.77
2023-04-20T03:14:43.149Z,67.66
2023-04-20T03:15:43.189Z,67.25
2023-04-20T03:16:43.349Z,68.08
2023-04-20T03:17:43.170Z,68.39
2023-04-20T03:18:43.121Z,68.59
2023-04-20T03:19:43.089Z,69.52
2023-04-20T03:20:43.129Z,69.73
2023-04-20T03:21:43.121Z,69.86
2023-04-20T03:22:43.074Z,70.48
2023-04-20T03:23:43.080Z,71.30
2023-04-20T03:24:43.087Z,71.92
2023-04-20T03:25:43.061Z,71.10
2023-04-20T03:26:43.083Z,71.61
2023-04-20T03:27:43.058Z,72.23
2023-04-20T03:28:43.047Z,73.05
2023-04-20T03:29:43.034Z,73.05
2023-04-20T03:30:43.039Z,72.75
2023-04-20T03:31:43.108Z,73.05
2023-04-20T03:32:43.069Z,73.19
2023-04-20T03:33:43.011Z,72.88
2023-04-20T03:34:42.956Z,73.50
2023-04-20T03:35:42.984Z,72.99
2023-04-20T03:36:42.920Z,73.50
2023-04-20T03:37:42.933Z,73.30
2023-04-20T03:38:42.936Z,73.50
2023-04-20T03:39:42.902Z,73.81
2023-04-20T03:40:42.890Z,73.71
2023-04-20T03:41:42.882Z,74.12
2023-04-20T03:42:43.022Z,74.12
2023-04-20T03:43:42.887Z,74.84
2023-04-20T03:44:42.848Z,74.74
2023-04-20T03:45:42.904Z,75.26
2023-04-20T03:46:42.867Z,74.53
2023-04-20T03:47:42.838Z,74.53
2023-04-20T03:48:42.837Z,74.95
2023-04-20T03:49:42.804Z,74.74
2023-04-20T03:50:42.787Z,75.36
2023-04-20T03:51:42.775Z,75.77
2023-04-20T03:52:42.934Z,75.67
2023-04-20T03:53:42.813Z,75.15
2023-04-20T03:54:42.806Z,75.26
2023-04-20T03:55:42.721Z,75.56
2023-04-20T03:56:42.714Z,76.08
2023-04-20T03:57:42.697Z,75.81
2023-04-20T03:58:42.679Z,76.32
2023-04-20T03:59:42.662Z,77.04
2023-04-20T04:00:42.640Z,76.73
2023-04-20T04:01:42.631Z,76.73
2023-04-20T04:02:43.107Z,76.94
2023-04-20T04:03:42.696Z,77.15
2023-04-20T04:04:42.726Z,77.66
2023-04-20T04:05:42.682Z,77.87
2023-04-20T04:06:42.579Z,77.76
2023-04-20T04:07:42.631Z,77.76
2023-04-20T04:08:42.546Z,78.08
2023-04-20T04:09:42.566Z,78.38
2023-04-20T04:10:42.522Z,78.69
2023-04-20T04:11:42.506Z,79.00
2023-04-20T04:12:42.592Z,78.83
2023-04-20T04:13:42.534Z,78.83
2023-04-20T04:14:42.512Z,79.25
2023-04-20T04:15:42.508Z,79.45
2023-04-20T04:16:42.502Z,79.45
2023-04-20T04:17:42.554Z,79.55
2023-04-20T04:18:42.434Z,79.55
2023-04-20T04:19:42.436Z,79.76
2023-04-20T04:20:42.410Z,79.45
2023-04-20T04:21:42.449Z,79.45
2023-04-20T04:22:42.439Z,79.97
2023-04-20T04:23:42.393Z,79.86
2023-04-20T04:24:42.375Z,80.38
2023-04-20T04:25:42.524Z,80.79
2023-04-20T04:26:42.353Z,80.48
2023-04-20T04:27:42.384Z,80.69
2023-04-20T04:28:42.343Z,80.90
2023-04-20T04:29:42.345Z,80.90
2023-04-20T04:30:42.326Z,80.93
2023-04-20T04:31:42.406Z,81.35
2023-04-20T04:32:42.315Z,81.24
2023-04-20T04:33:42.323Z,80.83
2023-04-20T04:34:42.323Z,81.04
2023-04-20T04:35:42.286Z,81.24
2023-04-20T04:36:42.256Z,81.24
2023-04-20T04:37:42.272Z,81.24
2023-04-20T04:38:42.262Z,80.93
2023-04-20T04:39:42.266Z,80.93
2023-04-20T04:40:42.237Z,80.83
2023-04-20T04:41:42.211Z,81.56
2023-04-20T04:42:42.194Z,81.86
2023-04-20T04:43:42.252Z,81.96
2023-04-20T04:44:42.229Z,81.24
2023-04-20T04:45:42.220Z,81.35
2023-04-20T04:46:42.246Z,81.56
2023-04-20T04:47:42.232Z,81.66
2023-04-20T04:48:42.145Z,81.76
2023-04-20T04:49:42.141Z,82.07
2023-04-20T04:50:42.143Z,82.07
2023-04-20T04:51:42.149Z,82.07
2023-04-20T04:52:42.097Z,81.66
2023-04-20T04:53:42.108Z,81.76
2023-04-20T04:54:42.081Z,82.17
2023-04-20T04:55:42.150Z,81.96
2023-04-20T04:56:42.094Z,82.07
2023-04-20T04:57:42.046Z,81.62
2023-04-20T04:58:42.234Z,82.14
2023-04-20T04:59:42.032Z,82.03
2023-04-20T05:00:42.043Z,81.82
2023-04-20T05:01:42.088Z,81.72
2023-04-20T05:02:42.103Z,81.51
2023-04-20T05:03:42.176Z,82.03
2023-04-20T05:04:42.134Z,81.82
2023-04-20T05:05:41.990Z,81.41
2023-04-20T05:06:41.943Z,82.14
2023-04-20T05:07:41.977Z,81.93
2023-04-20T05:08:41.929Z,81.82
2023-04-20T05:09:41.914Z,81.41
2023-04-20T05:10:41.918Z,81.62
2023-04-20T05:11:41.901Z,82.03
2023-04-20T05:12:41.897Z,82.75
2023-04-20T05:13:41.921Z,82.65
2023-04-20T05:14:41.873Z,82.24
2023-04-20T05:15:43.835Z,81.62
2023-04-20T05:16:41.871Z,81.62
2023-04-20T05:17:41.957Z,81.72
2023-04-20T05:18:41.811Z,81.72
2023-04-20T05:19:41.899Z,82.24
2023-04-20T05:20:41.823Z,82.24
2023-04-20T05:21:41.824Z,81.82
2023-04-20T05:22:41.808Z,82.03
2023-04-20T05:23:41.796Z,82.14
2023-04-20T05:24:41.755Z,82.14
2023-04-20T05:25:41.765Z,81.82
2023-04-20T05:26:41.753Z,81.93
2023-04-20T05:27:41.785Z,82.65
2023-04-20T05:28:41.975Z,82.86
2023-04-20T05:29:41.743Z,82.75
2023-04-20T05:30:41.691Z,82.24
2023-04-20T05:31:41.748Z,82.14
2023-04-20T05:32:41.763Z,81.93
2023-04-20T05:33:41.703Z,81.51
2023-04-20T05:34:41.739Z,82.24
2023-04-20T05:35:41.656Z,82.24
2023-04-20T05:36:41.626Z,82.03
2023-04-20T05:37:41.638Z,82.03
2023-04-20T05:38:41.616Z,81.72
2023-04-20T05:39:41.633Z,82.14
2023-04-20T05:40:41.621Z,82.45
2023-04-20T05:41:41.633Z,82.75
2023-04-20T05:42:41.601Z,83.37
2023-04-20T05:43:41.612Z,82.55
2023-04-20T05:44:41.564Z,82.14
2023-04-20T05:45:41.607Z,82.75
2023-04-20T05:46:41.543Z,82.96
2023-04-20T05:47:41.583Z,82.03
2023-04-20T05:48:41.535Z,82.96
2023-04-20T05:49:41.540Z,82.92
2023-04-20T05:50:41.504Z,82.71
2023-04-20T05:51:41.513Z,82.61
2023-04-20T05:52:41.499Z,82.10
2023-04-20T05:53:41.502Z,82.40
2023-04-20T05:54:41.461Z,82.51
2023-04-20T05:55:41.456Z,82.40
2023-04-20T05:56:41.466Z,82.61
2023-04-20T05:57:41.490Z,82.40
2023-04-20T05:58:41.420Z,82.40
2023-04-20T05:59:41.752Z,83.03
2023-04-20T06:00:41.420Z,82.82
2023-04-20T06:01:41.419Z,82.61
2023-04-20T06:02:41.600Z,82.92
2023-04-20T06:03:41.643Z,82.92
2023-04-20T06:04:41.674Z,82.92
2023-04-20T06:05:41.536Z,83.44
2023-04-20T06:06:41.359Z,83.44
2023-04-20T06:07:41.325Z,83.54
2023-04-20T06:08:41.332Z,82.30
2023-04-20T06:09:41.329Z,82.30
2023-04-20T06:10:41.360Z,82.82
2023-04-20T06:11:41.292Z,83.13
2023-04-20T06:12:41.273Z,82.82
2023-04-20T06:13:41.326Z,83.54
2023-04-20T06:14:41.337Z,83.33
2023-04-20T06:15:41.378Z,83.33
2023-04-20T06:16:41.255Z,82.51
2023-04-20T06:17:41.585Z,82.51
2023-04-20T06:18:41.215Z,82.51
2023-04-20T06:19:41.230Z,83.03
2023-04-20T06:20:41.256Z,82.92
2023-04-20T06:21:41.219Z,82.20
2023-04-20T06:22:41.182Z,83.23
2023-04-20T06:23:41.207Z,83.23
2023-04-20T06:24:41.202Z,83.13
2023-04-20T06:25:41.181Z,83.33
2023-04-20T06:26:41.157Z,83.75
2023-04-20T06:27:41.229Z,82.92
2023-04-20T06:28:41.134Z,82.71
2023-04-20T06:29:41.131Z,82.86
2023-04-20T06:30:41.103Z,83.33
2023-04-20T06:31:41.186Z,82.45
2023-04-20T06:32:41.161Z,82.71
2023-04-20T06:33:41.146Z,83.03
2023-04-20T06:34:41.130Z,82.51
2023-04-20T06:35:41.065Z,83.03
2023-04-20T06:36:41.044Z,83.33
2023-04-20T06:37:41.040Z,83.13
2023-04-20T06:38:41.045Z,83.33
2023-04-20T06:39:41.041Z,83.33
2023-04-20T06:40:41.020Z,83.03
2023-04-20T06:41:41.328Z,83.44
2023-04-20T06:42:41.091Z,82.98
2023-04-20T06:43:40.963Z,82.68
2023-04-20T06:44:40.971Z,82.06
2023-04-20T06:45:40.939Z,81.34
2023-04-20T06:46:41.005Z,81.44
2023-04-20T06:47:40.943Z,81.40
2023-04-20T06:48:40.912Z,81.71
2023-04-20T06:49:40.902Z,82.54
2023-04-20T06:50:40.881Z,82.23
2023-04-20T06:51:40.915Z,81.61
2023-04-20T06:52:40.996Z,81.40
2023-04-20T06:53:40.913Z,81.61
2023-04-20T06:54:40.924Z,81.51
2023-04-20T06:55:40.823Z,81.30
2023-04-20T06:56:40.838Z,81.30
2023-04-20T06:57:40.884Z,81.61
2023-04-20T06:58:40.843Z,81.20
2023-04-20T06:59:40.790Z,82.06
2023-04-20T07:00:40.805Z,82.16
2023-04-20T07:01:40.867Z,81.23
2023-04-20T07:02:40.820Z,81.13
2023-04-20T07:03:40.880Z,82.06
2023-04-20T07:04:40.806Z,81.85
2023-04-20T07:05:40.776Z,81.75
2023-04-20T07:06:40.706Z,81.44
2023-04-20T07:07:40.752Z,81.23
2023-04-20T07:08:40.719Z,81.03
2023-04-20T07:09:40.743Z,81.13
2023-04-20T07:10:40.687Z,81.23
2023-04-20T07:11:40.713Z,81.85
2023-04-20T07:12:42.808Z,81.23
2023-04-20T07:13:40.668Z,81.54
2023-04-20T07:14:40.716Z,81.23
2023-04-20T07:15:40.680Z,81.34
2023-04-20T07:16:40.709Z,81.85
2023-04-20T07:17:40.699Z,82.16
2023-04-20T07:18:40.584Z,81.96
2023-04-20T07:19:40.614Z,82.16
2023-04-20T07:20:40.605Z,81.85
2023-04-20T07:21:40.587Z,82.06
2023-04-20T07:22:40.574Z,82.47
2023-04-20T07:23:41.479Z,82.98
2023-04-20T07:24:40.537Z,82.98
2023-04-20T07:25:40.536Z,82.26
2023-04-20T07:26:40.520Z,82.47
2023-04-20T07:27:40.525Z,82.64
2023-04-20T07:28:40.539Z,81.81
2023-04-20T07:29:40.485Z,82.12
2023-04-20T07:30:40.569Z,83.15
2023-04-20T07:31:40.489Z,82.12
2023-04-20T07:32:40.588Z,82.33
2023-04-20T07:33:40.464Z,82.84
2023-04-20T07:34:40.458Z,82.70
2023-04-20T07:35:40.441Z,81.77
2023-04-20T07:36:40.458Z,82.60
2023-04-20T07:37:40.771Z,82.19
2023-04-20T07:38:40.439Z,81.57
2023-04-20T07:39:40.399Z,81.37
2023-04-20T07:40:40.389Z,81.05
2023-04-20T07:41:40.423Z,80.75
2023-04-20T07:42:40.438Z,81.26
2023-04-20T07:43:40.468Z,81.05
2023-04-20T07:44:40.363Z,81.26
2023-04-20T07:45:40.372Z,82.33
2023-04-20T07:46:40.320Z,82.74
2023-04-20T07:47:40.377Z,82.84
2023-04-20T07:48:40.311Z,82.09
2023-04-20T07:49:40.295Z,83.63
2023-04-20T07:50:40.309Z,82.97
2023-04-20T07:51:40.299Z,82.67
2023-04-20T07:52:40.288Z,81.70
2023-04-20T07:53:41.142Z,81.39
2023-04-20T07:54:40.258Z,80.36
2023-04-20T07:55:40.286Z,79.85
2023-04-20T07:56:40.234Z,80.57
2023-04-20T07:57:40.352Z,80.47
2023-04-20T07:58:40.217Z,81.09
2023-04-20T07:59:40.191Z,81.19
2023-04-20T08:00:40.237Z,80.47
2023-04-20T08:01:40.219Z,81.05
2023-04-20T08:02:40.359Z,80.02
2023-04-20T08:03:40.444Z,79.95
2023-04-20T08:04:40.554Z,80.67
2023-04-20T08:05:40.248Z,81.19
2023-04-20T08:06:40.123Z,80.57
2023-04-20T08:07:40.146Z,80.91
2023-04-20T08:08:40.096Z,81.60
2023-04-20T08:09:40.146Z,81.49
2023-04-20T08:10:40.085Z,81.12
2023-04-20T08:11:40.084Z,82.77
2023-04-20T08:12:40.084Z,81.53
2023-04-20T08:13:40.185Z,81.12
2023-04-20T08:14:40.059Z,81.49
2023-04-20T08:15:40.273Z,81.74
2023-04-20T08:16:40.344Z,82.32
2023-04-20T08:17:40.030Z,81.60
2023-04-20T08:18:40.034Z,81.19
2023-04-20T08:19:41.027Z,81.60
2023-04-20T08:20:39.973Z,81.19
2023-04-20T08:21:39.960Z,82.32
2023-04-20T08:22:40.005Z,82.53
2023-04-20T08:23:40.016Z,80.36
2023-04-20T08:24:39.926Z,81.19
2023-04-20T08:25:39.978Z,81.70
2023-04-20T08:26:39.943Z,81.19
2023-04-20T08:27:39.913Z,80.91
2023-04-20T08:28:39.896Z,81.12
2023-04-20T08:29:39.861Z,81.23
2023-04-20T08:30:39.879Z,81.63
2023-04-20T08:31:39.932Z,82.77
2023-04-20T08:32:39.881Z,82.35
2023-04-20T08:33:39.899Z,82.05
2023-04-20T08:34:39.837Z,81.84
2023-04-20T08:35:39.854Z,82.15
2023-04-20T08:36:39.849Z,82.05
2023-04-20T08:37:39.814Z,81.63
2023-04-20T08:38:39.802Z,82.70
2023-04-20T08:39:39.795Z,83.28
2023-04-20T08:40:39.794Z,82.05
2023-04-20T08:41:39.746Z,81.53
2023-04-20T08:42:39.787Z,82.05
2023-04-20T08:43:39.759Z,81.53
2023-04-20T08:44:39.749Z,81.95
2023-04-20T08:45:39.704Z,81.84
2023-04-20T08:46:39.749Z,80.71
2023-04-20T08:47:39.759Z,81.02
2023-04-20T08:48:39.702Z,81.19
2023-04-20T08:49:39.674Z,81.49
2023-04-20T08:50:39.673Z,82.01
2023-04-20T08:51:39.690Z,81.29
2023-04-20T08:52:39.680Z,81.60
2023-04-20T08:53:39.649Z,82.21
2023-04-20T08:54:45.865Z,81.70
2023-04-20T08:55:39.595Z,82.01
2023-04-20T08:56:39.655Z,82.11
2023-04-20T08:57:39.619Z,81.09
2023-04-20T08:58:39.593Z,81.09
2023-04-20T08:59:39.594Z,80.67
2023-04-20T09:00:39.588Z,81.49
2023-04-20T09:01:39.722Z,80.26
2023-04-20T09:02:40.312Z,80.88
2023-04-20T09:03:39.724Z,80.53
2023-04-20T09:04:39.669Z,80.47
2023-04-20T09:05:39.505Z,82.39
2023-04-20T09:06:39.532Z,80.94
2023-04-20T09:07:39.529Z,80.63
2023-04-20T09:08:39.499Z,81.25
2023-04-20T09:09:39.546Z,80.94
2023-04-20T09:10:39.498Z,80.49
2023-04-20T09:11:39.460Z,80.49
2023-04-20T09:12:39.484Z,80.53
2023-04-20T09:13:39.457Z,81.01
2023-04-20T09:14:39.422Z,79.98
2023-04-20T09:15:39.415Z,78.64
2023-04-20T09:16:39.605Z,78.99
2023-04-20T09:17:39.506Z,80.33
2023-04-20T09:18:39.433Z,81.05
2023-04-20T09:19:39.349Z,80.84
2023-04-20T09:20:39.358Z,81.46
2023-04-20T09:21:39.337Z,80.33
2023-04-20T09:22:39.365Z,80.77
2023-04-20T09:23:39.343Z,80.16
2023-04-20T09:24:39.338Z,79.95
2023-04-20T09:25:39.342Z,80.67
2023-04-20T09:26:39.305Z,80.05
2023-04-20T09:27:39.297Z,80.81
2023-04-20T09:28:39.312Z,81.23
2023-04-20T09:29:39.272Z,81.02
2023-04-20T09:30:39.258Z,81.33
2023-04-20T09:31:39.300Z,81.53
2023-04-20T09:32:39.299Z,82.05
2023-04-20T09:33:39.354Z,82.15
2023-04-20T09:34:39.226Z,82.46
2023-04-20T09:35:39.219Z,81.84
2023-04-20T09:36:39.207Z,80.91
2023-04-20T09:37:39.176Z,81.02
2023-04-20T09:38:39.247Z,81.12
2023-04-20T09:39:39.177Z,81.84
2023-04-20T09:40:39.142Z,82.15
2023-04-20T09:41:39.155Z,82.35
2023-04-20T09:42:39.128Z,82.05
2023-04-20T09:43:39.204Z,82.05
2023-04-20T09:44:39.113Z,81.84
2023-04-20T09:45:39.561Z,80.61
2023-04-20T09:46:39.085Z,81.33
2023-04-20T09:47:39.917Z,81.33
2023-04-20T09:48:39.058Z,81.95
2023-04-20T09:49:39.051Z,80.81
2023-04-20T09:50:48.658Z,80.81
2023-04-20T09:51:39.039Z,80.47
2023-04-20T09:52:39.094Z,80.61
2023-04-20T09:53:39.010Z,79.58
2023-04-20T09:54:39.002Z,79.27
2023-04-20T09:55:39.014Z,79.27
2023-04-20T09:56:39.016Z,78.92
2023-04-20T09:57:39.044Z,79.95
2023-04-20T09:58:39.000Z,80.57
2023-04-20T09:59:38.931Z,79.75
2023-04-20T10:00:38.949Z,79.85
2023-04-20T10:01:39.002Z,79.95
2023-04-20T10:02:38.998Z,80.05
2023-04-20T10:03:39.054Z,80.26
2023-04-20T10:04:39.036Z,79.50
2023-04-20T10:05:38.991Z,79.26
2023-04-20T10:06:38.922Z,79.22
2023-04-20T10:07:38.961Z,79.39
2023-04-20T10:08:38.936Z,78.33
2023-04-20T10:09:38.846Z,76.17
2023-04-20T10:10:38.869Z,76.04
2023-04-20T10:11:51.611Z,75.21
2023-04-20T10:12:38.830Z,75.18
2023-04-20T10:13:38.798Z,74.98
2023-04-20T10:14:38.807Z,73.95
2023-04-20T10:15:38.788Z,73.33
2023-04-20T10:16:38.951Z,74.32
2023-04-20T10:17:38.882Z,73.71
2023-04-20T10:18:38.868Z,73.40
2023-04-20T10:19:38.814Z,72.48
2023-04-20T10:20:38.794Z,72.68
2023-04-20T10:21:38.795Z,72.20
2023-04-20T10:22:38.781Z,71.18
2023-04-20T10:23:38.696Z,71.18
2023-04-20T10:24:38.724Z,72.31
2023-04-20T10:25:38.725Z,71.90
2023-04-20T10:26:38.674Z,71.48
2023-04-20T10:27:38.651Z,72.10
2023-04-20T10:28:38.668Z,71.59
2023-04-20T10:29:38.630Z,72.27
2023-04-20T10:30:38.771Z,71.35
2023-04-20T10:31:38.615Z,72.58
2023-04-20T10:32:38.754Z,71.32
2023-04-20T10:33:38.622Z,71.32
2023-04-20T10:34:38.602Z,69.24
2023-04-20T10:35:38.569Z,68.83
2023-04-20T10:36:38.587Z,69.85
2023-04-20T10:37:38.569Z,69.65
2023-04-20T10:38:38.572Z,69.34
2023-04-20T10:39:38.591Z,70.50
2023-04-20T10:40:38.569Z,70.70
2023-04-20T10:41:38.527Z,71.04
2023-04-20T10:42:38.519Z,72.92
2023-04-20T10:43:38.511Z,73.85
2023-04-20T10:44:38.504Z,74.57
2023-04-20T10:45:38.502Z,74.40
2023-04-20T10:46:38.485Z,75.42
2023-04-20T10:47:38.549Z,76.28
2023-04-20T10:48:38.451Z,76.58
2023-04-20T10:49:38.504Z,76.45
2023-04-20T10:50:38.455Z,75.66
2023-04-20T10:51:38.381Z,75.87
2023-04-20T10:52:38.431Z,77.06
2023-04-20T10:53:38.456Z,76.34
2023-04-20T10:54:38.586Z,76.82
2023-04-20T10:55:38.347Z,76.00
2023-04-20T10:56:38.433Z,75.49
2023-04-20T10:57:38.375Z,75.04
2023-04-20T10:58:38.349Z,75.11
2023-04-20T10:59:38.318Z,75.38
2023-04-20T11:00:38.378Z,74.11
2023-04-20T11:01:38.338Z,72.89
2023-04-20T11:02:38.493Z,70.94
2023-04-20T11:03:38.480Z,70.43
2023-04-20T11:04:38.297Z,70.06
2023-04-20T11:05:38.238Z,71.90
2023-04-20T11:06:38.253Z,70.36
2023-04-20T11:07:38.267Z,70.36
2023-04-20T11:08:38.250Z,70.64
2023-04-20T11:09:38.212Z,69.82
2023-04-20T11:10:38.231Z,68.79
2023-04-20T11:11:38.249Z,68.69
2023-04-20T11:12:38.208Z,68.59
2023-04-20T11:13:38.169Z,67.57
2023-04-20T11:14:38.271Z,68.08
2023-04-20T11:15:38.178Z,66.75
2023-04-20T11:16:49.754Z,67.97
2023-04-20T11:17:38.192Z,67.29
2023-04-20T11:18:38.119Z,67.40
2023-04-20T11:19:38.119Z,68.21
2023-04-20T11:20:38.121Z,67.40
2023-04-20T11:21:38.081Z,67.40
2023-04-20T11:22:38.080Z,67.40
2023-04-20T11:23:38.058Z,67.26
2023-04-20T11:24:38.030Z,67.36
2023-04-20T11:25:38.065Z,68.69
2023-04-20T11:26:38.070Z,69.07
2023-04-20T11:27:38.020Z,67.74
2023-04-20T11:28:37.997Z,67.54
2023-04-20T11:29:38.064Z,66.10
2023-04-20T11:30:39.055Z,66.51
2023-04-20T11:31:38.026Z,67.02
2023-04-20T11:32:38.137Z,66.51
2023-04-20T11:33:38.009Z,67.16
2023-04-20T11:34:37.965Z,67.46
2023-04-20T11:35:37.939Z,67.97
2023-04-20T11:36:37.912Z,68.73
2023-04-20T11:37:37.931Z,69.54
2023-04-20T11:38:37.879Z,69.34
2023-04-20T11:39:37.917Z,69.13
2023-04-20T11:40:37.898Z,68.32
2023-04-20T11:41:37.851Z,68.21
2023-04-20T11:42:37.894Z,68.01
2023-04-20T11:43:37.878Z,68.11
2023-04-20T11:44:37.859Z,68.65
2023-04-20T11:45:37.850Z,68.96
2023-04-20T11:46:37.867Z,68.96
2023-04-20T11:47:37.856Z,69.17
2023-04-20T11:48:37.829Z,68.86
2023-04-20T11:49:37.802Z,68.45
2023-04-20T11:50:39.294Z,68.21
2023-04-20T11:51:37.764Z,68.52
2023-04-20T11:52:37.759Z,66.88
2023-04-20T11:53:37.708Z,67.29
2023-04-20T11:54:37.773Z,67.77
2023-04-20T11:55:37.721Z,66.95
2023-04-20T11:56:37.727Z,67.05
2023-04-20T11:57:37.667Z,67.13
2023-04-20T11:58:37.691Z,65.36
2023-04-20T11:59:37.690Z,64.95
2023-04-20T12:00:37.699Z,65.02
2023-04-20T12:01:37.650Z,64.45
2023-04-20T12:02:37.726Z,64.34
2023-04-20T12:03:37.801Z,62.35
2023-04-20T12:04:37.798Z,62.11
2023-04-20T12:05:38.341Z,61.68
2023-04-20T12:06:37.588Z,60.83
2023-04-20T12:07:37.605Z,60.53
2023-04-20T12:08:37.595Z,60.22
2023-04-20T12:09:37.559Z,60.83
2023-04-20T12:10:37.569Z,58.80
2023-04-20T12:11:37.570Z,58.89
2023-04-20T12:12:37.525Z,59.53
2023-04-20T12:13:37.549Z,60.66
2023-04-20T12:14:37.535Z,60.89
2023-04-20T12:15:37.526Z,60.99
2023-04-20T12:16:37.498Z,61.80
2023-04-20T12:17:37.498Z,61.50
2023-04-20T12:18:37.482Z,61.16
2023-04-20T12:19:37.521Z,60.25
2023-04-20T12:20:37.440Z,61.37
2023-04-20T12:21:37.440Z,61.09
2023-04-20T12:22:37.459Z,61.32
2023-04-20T12:23:37.406Z,62.24
2023-04-20T12:24:37.408Z,61.73
2023-04-20T12:25:37.382Z,61.40
2023-04-20T12:26:38.768Z,59.23
2023-04-20T12:27:37.442Z,58.62
2023-04-20T12:28:37.352Z,58.69
2023-04-20T12:29:37.451Z,58.72
2023-04-20T12:30:37.333Z,59.94
2023-04-20T12:31:37.442Z,59.97
2023-04-20T12:32:37.409Z,59.53
2023-04-20T12:33:37.295Z,58.21
2023-04-20T12:34:37.283Z,58.18
2023-04-20T12:35:37.275Z,58.76
2023-04-20T12:36:37.297Z,58.26
2023-04-20T12:37:37.265Z,57.85
2023-04-20T12:38:37.267Z,57.24
2023-04-20T12:39:37.266Z,56.52
2023-04-20T12:40:37.221Z,57.26
2023-04-20T12:41:37.269Z,57.87
2023-04-20T12:42:37.225Z,58.08
2023-04-20T12:43:37.225Z,57.60
2023-04-20T12:44:37.217Z,57.80
2023-04-20T12:45:37.189Z,58.34
2023-04-20T12:46:37.213Z,59.87
2023-04-20T12:47:37.199Z,60.71
2023-04-20T12:48:37.130Z,60.30
2023-04-20T12:49:37.143Z,61.25
2023-04-20T12:50:37.134Z,60.64
2023-04-20T12:51:37.125Z,61.56
2023-04-20T12:52:37.081Z,61.90